createdAt,value
2019-05-18T00:02:06.248Z,15.00
2019-05-18T00:04:36.560Z,15.10
2019-05-18T00:07:06.803Z,15.10
2019-05-18T00:09:57.107Z,15.10
2019-05-18T00:12:27.299Z,15.10
2019-05-18T00:14:57.543Z,15.10
2019-05-18T00:17:27.796Z,15.00
2019-05-18T00:19:58.026Z,15.00
2019-05-18T00:22:28.231Z,15.10
2019-05-18T00:24:58.442Z,15.00
2019-05-18T00:27:28.649Z,14.80
2019-05-18T00:29:58.922Z,14.90
2019-05-18T00:32:29.190Z,15.10
2019-05-18T00:34:59.484Z,15.00
2019-05-18T00:37:29.671Z,15.00
2019-05-18T00:39:59.896Z,15.00
2019-05-18T00:42:30.470Z,15.00
2019-05-18T00:45:00.483Z,14.90
2019-05-18T00:47:40.758Z,14.90
2019-05-18T00:50:02.971Z,14.90
2019-05-18T00:52:33.180Z,14.90
2019-05-18T00:55:04.312Z,14.90
2019-05-18T00:57:34.528Z,14.90
2019-05-18T01:00:08.898Z,14.90
2019-05-18T01:02:39.527Z,14.90
2019-05-18T01:05:09.919Z,14.90
2019-05-18T01:07:40.602Z,14.90
2019-05-18T01:10:11.018Z,14.90
2019-05-18T01:12:41.757Z,15.00
2019-05-18T01:15:11.997Z,15.00
2019-05-18T01:17:56.371Z,15.00
2019-05-18T01:20:15.247Z,15.00
2019-05-18T01:22:45.454Z,14.90
2019-05-18T01:25:16.625Z,14.90
2019-05-18T01:27:46.858Z,14.80
2019-05-18T01:30:17.147Z,14.80
2019-05-18T01:32:47.414Z,14.70
2019-05-18T01:35:18.732Z,14.80
2019-05-18T01:37:48.975Z,14.80
2019-05-18T01:40:19.256Z,14.90
2019-05-18T01:42:49.489Z,14.90
2019-05-18T01:45:19.705Z,14.80
2019-05-18T01:47:49.900Z,14.70
2019-05-18T01:50:20.110Z,14.70
2019-05-18T01:52:50.750Z,14.70
2019-05-18T01:55:21.011Z,14.60
2019-05-18T01:57:51.275Z,14.60
2019-05-18T02:00:21.506Z,14.70
2019-05-18T02:02:51.929Z,14.70
2019-05-18T02:05:22.153Z,14.70
2019-05-18T02:07:52.444Z,14.60
2019-05-18T02:10:22.669Z,14.60
2019-05-18T02:12:53.045Z,14.60
2019-05-18T02:15:23.305Z,14.40
2019-05-18T02:17:53.518Z,14.40
2019-05-18T02:20:24.554Z,14.50
2019-05-18T02:22:54.887Z,14.50
2019-05-18T02:25:25.115Z,14.50
2019-05-18T02:27:55.471Z,14.50
2019-05-18T02:30:25.703Z,14.50
2019-05-18T02:32:56.947Z,14.40
2019-05-18T02:35:28.165Z,14.40
2019-05-18T02:38:15.076Z,14.30
2019-05-18T02:40:45.526Z,14.20
2019-05-18T02:43:16.166Z,14.10
2019-05-18T02:45:46.392Z,14.10
2019-05-18T02:48:16.596Z,14.10
2019-05-18T02:50:46.799Z,14.00
2019-05-18T02:53:16.998Z,13.90
2019-05-18T02:55:47.225Z,13.90
2019-05-18T02:58:17.421Z,13.80
2019-05-18T03:00:48.011Z,13.90
2019-05-18T03:03:18.213Z,13.90
2019-05-18T03:05:48.832Z,13.90
2019-05-18T03:08:19.033Z,13.80
2019-05-18T03:10:49.251Z,13.70
2019-05-18T03:13:19.539Z,13.70
2019-05-18T03:15:49.827Z,13.70
2019-05-18T03:18:20.132Z,13.60
2019-05-18T03:20:50.358Z,13.50
2019-05-18T03:23:20.546Z,13.60
2019-05-18T03:25:50.879Z,13.50
2019-05-18T03:28:21.420Z,13.50
2019-05-18T03:30:51.441Z,13.40
2019-05-18T03:33:28.081Z,13.40
2019-05-18T03:35:53.574Z,13.30
2019-05-18T03:38:23.792Z,13.30
2019-05-18T03:40:54.025Z,13.30
2019-05-18T03:43:24.280Z,13.30
2019-05-18T03:45:55.043Z,13.30
2019-05-18T03:48:25.323Z,13.30
2019-05-18T03:50:55.535Z,13.30
2019-05-18T03:53:25.743Z,13.30
2019-05-18T03:55:56.053Z,13.50
2019-05-18T03:58:26.319Z,13.50
2019-05-18T04:00:56.644Z,13.50
2019-05-18T04:03:26.875Z,13.60
2019-05-18T04:05:57.067Z,13.70
2019-05-18T04:08:27.289Z,13.70
2019-05-18T04:10:57.470Z,13.80
2019-05-18T04:13:27.699Z,13.90
2019-05-18T04:15:57.962Z,14.00
2019-05-18T04:18:28.249Z,14.20
2019-05-18T04:20:59.074Z,14.40
2019-05-18T04:23:29.457Z,14.50
2019-05-18T04:26:18.096Z,14.50
2019-05-18T04:28:48.459Z,14.30
2019-05-18T04:31:18.651Z,14.40
2019-05-18T04:33:48.871Z,14.40
2019-05-18T04:36:19.069Z,14.50
2019-05-18T04:38:49.300Z,14.70
2019-05-18T04:41:19.556Z,14.90
2019-05-18T04:43:50.851Z,15.20
2019-05-18T04:46:21.118Z,15.50
2019-05-18T04:48:51.331Z,16.10
2019-05-18T04:51:21.552Z,16.80
2019-05-18T04:53:53.121Z,17.50
2019-05-18T04:56:23.528Z,18.00
2019-05-18T04:58:53.791Z,18.40
2019-05-18T05:01:24.038Z,18.60
2019-05-18T05:03:54.565Z,19.20
2019-05-18T05:06:24.767Z,19.90
2019-05-18T05:08:55.004Z,20.80
2019-05-18T05:11:32.079Z,21.40
2019-05-18T05:14:04.935Z,22.10
2019-05-18T05:16:35.139Z,22.90
2019-05-18T05:19:08.568Z,23.30
2019-05-18T05:21:37.328Z,23.90
2019-05-18T05:24:07.668Z,24.60
2019-05-18T05:26:39.558Z,25.40
2019-05-18T05:29:09.834Z,26.00
2019-05-18T05:31:40.032Z,26.20
2019-05-18T05:34:10.307Z,26.90
2019-05-18T05:36:41.089Z,27.40
2019-05-18T05:39:11.375Z,27.40
2019-05-18T05:41:41.567Z,27.20
2019-05-18T05:44:11.788Z,27.10
2019-05-18T05:46:41.979Z,26.50
2019-05-18T05:49:12.198Z,26.60
2019-05-18T05:51:42.559Z,26.70
2019-05-18T05:54:12.846Z,25.20
2019-05-18T05:56:43.072Z,25.60
2019-05-18T05:59:13.299Z,25.70
2019-05-18T06:01:43.539Z,26.30
2019-05-18T06:04:13.734Z,27.50
2019-05-18T06:06:43.939Z,28.00
2019-05-18T06:09:14.153Z,27.70
2019-05-18T06:11:44.352Z,27.30
2019-05-18T06:14:14.582Z,26.30
2019-05-18T06:16:44.779Z,25.30
2019-05-18T06:19:14.999Z,25.60
2019-05-18T06:21:45.199Z,26.70
2019-05-18T06:24:15.427Z,28.20
2019-05-18T06:26:45.627Z,29.20
2019-05-18T06:29:15.933Z,30.10
2019-05-18T06:31:46.222Z,31.10
2019-05-18T06:34:16.423Z,31.60
2019-05-18T06:36:47.958Z,31.80
2019-05-18T06:39:18.169Z,32.70
2019-05-18T06:41:48.533Z,33.00
2019-05-18T06:44:18.748Z,33.30
2019-05-18T06:46:48.949Z,34.00
2019-05-18T06:49:19.239Z,34.10
2019-05-18T06:51:49.453Z,33.80
2019-05-18T06:54:19.830Z,33.70
2019-05-18T06:56:51.176Z,33.60
2019-05-18T06:59:21.927Z,33.00
2019-05-18T07:01:52.117Z,32.40
2019-05-18T07:04:22.503Z,32.90
2019-05-18T07:06:53.082Z,33.60
2019-05-18T07:09:23.348Z,34.40
2019-05-18T07:11:56.137Z,34.60
2019-05-18T07:14:26.262Z,34.80
2019-05-18T07:16:55.903Z,34.30
2019-05-18T07:19:26.003Z,35.80
2019-05-18T07:21:56.421Z,35.70
2019-05-18T07:24:26.665Z,34.70
2019-05-18T07:27:30.408Z,34.80
2019-05-18T07:30:00.857Z,35.30
2019-05-18T07:32:31.159Z,35.70
2019-05-18T07:35:01.448Z,36.50
2019-05-18T07:37:31.641Z,36.10
2019-05-18T07:40:02.237Z,35.90
2019-05-18T07:42:32.857Z,36.30
2019-05-18T07:45:03.353Z,36.80
2019-05-18T07:47:33.653Z,36.40
2019-05-18T07:50:05.613Z,36.10
2019-05-18T07:52:36.090Z,35.80
2019-05-18T07:55:08.202Z,35.50
2019-05-18T07:57:38.544Z,35.00
2019-05-18T08:00:08.785Z,34.30
2019-05-18T08:02:38.984Z,34.10
2019-05-18T08:05:09.301Z,33.80
2019-05-18T08:07:39.563Z,33.80
2019-05-18T08:10:09.868Z,33.60
2019-05-18T08:12:40.302Z,33.50
2019-05-18T08:15:10.830Z,33.00
2019-05-18T08:17:41.100Z,31.80
2019-05-18T08:20:11.324Z,31.70
2019-05-18T08:22:41.523Z,32.30
2019-05-18T08:25:11.742Z,31.60
2019-05-18T08:27:41.947Z,31.40
2019-05-18T08:30:12.170Z,30.50
2019-05-18T08:32:42.362Z,30.10
2019-05-18T08:35:12.578Z,30.30
2019-05-18T08:37:42.785Z,30.40
2019-05-18T08:40:15.099Z,29.30
2019-05-18T08:42:46.015Z,28.20
2019-05-18T08:45:17.299Z,27.30
2019-05-18T08:47:47.690Z,26.60
2019-05-18T08:50:18.968Z,25.70
2019-05-18T08:52:49.259Z,25.70
2019-05-18T08:55:20.058Z,25.00
2019-05-18T08:57:51.100Z,25.00
2019-05-18T09:00:27.621Z,24.40
2019-05-18T09:03:01.426Z,23.80
2019-05-18T09:05:32.944Z,23.30
2019-05-18T09:08:07.445Z,23.40
2019-05-18T09:10:40.185Z,23.50
2019-05-18T09:13:11.563Z,23.10
2019-05-18T09:15:42.664Z,24.00
2019-05-18T09:18:13.609Z,24.30
2019-05-18T09:20:44.076Z,24.70
2019-05-18T09:23:14.585Z,24.90
2019-05-18T09:25:44.831Z,24.90
2019-05-18T09:28:51.735Z,24.90
2019-05-18T09:31:22.003Z,24.90
2019-05-18T09:33:52.217Z,24.80
2019-05-18T09:36:24.997Z,25.00
2019-05-18T09:38:56.282Z,25.60
2019-05-18T09:41:26.502Z,26.30
2019-05-18T09:43:56.930Z,26.60
2019-05-18T09:46:27.229Z,27.30
2019-05-18T09:48:57.798Z,28.60
2019-05-18T09:51:28.041Z,29.20
2019-05-18T09:53:58.376Z,28.70
2019-05-18T09:56:31.895Z,27.90
2019-05-18T09:59:02.173Z,27.20
2019-05-18T10:01:32.485Z,27.00
2019-05-18T10:04:03.590Z,26.60
2019-05-18T10:06:33.905Z,27.00
2019-05-18T10:09:06.760Z,27.30
2019-05-18T10:11:38.635Z,29.00
2019-05-18T10:14:10.211Z,30.70
2019-05-18T10:16:40.471Z,32.00
2019-05-18T10:19:10.736Z,31.90
2019-05-18T10:21:42.630Z,31.80
2019-05-18T10:24:13.303Z,32.60
2019-05-18T10:26:43.912Z,33.60
2019-05-18T10:29:15.951Z,33.90
2019-05-18T10:31:46.175Z,34.50
2019-05-18T10:34:17.329Z,35.00
2019-05-18T10:36:48.123Z,35.30
2019-05-18T10:39:18.617Z,34.60
2019-05-18T10:41:50.533Z,34.40
2019-05-18T10:44:20.745Z,33.50
2019-05-18T10:46:51.914Z,32.90
2019-05-18T10:49:22.116Z,32.30
2019-05-18T10:51:52.530Z,32.20
2019-05-18T10:54:22.735Z,32.70
2019-05-18T10:56:53.031Z,33.40
2019-05-18T10:59:23.349Z,34.50
2019-05-18T11:01:53.648Z,34.20
2019-05-18T11:04:23.909Z,33.50
2019-05-18T11:06:54.215Z,34.10
2019-05-18T11:09:24.436Z,34.20
2019-05-18T11:11:54.667Z,32.90
2019-05-18T11:14:24.941Z,33.30
2019-05-18T11:16:55.245Z,33.90
2019-05-18T11:19:25.520Z,34.20
2019-05-18T11:21:55.740Z,34.10
2019-05-18T11:24:26.004Z,32.70
2019-05-18T11:26:56.261Z,31.40
2019-05-18T11:29:26.472Z,29.90
2019-05-18T11:31:56.775Z,29.40
2019-05-18T11:34:27.035Z,29.10
2019-05-18T11:36:57.324Z,29.30
2019-05-18T11:39:27.519Z,29.50
2019-05-18T11:41:57.759Z,29.40
2019-05-18T11:44:28.101Z,29.40
2019-05-18T11:46:58.508Z,29.30
2019-05-18T11:49:29.248Z,30.10
2019-05-18T11:51:59.914Z,31.60
2019-05-18T11:54:30.122Z,31.60
2019-05-18T11:57:00.437Z,31.90
2019-05-18T11:59:30.824Z,32.30
2019-05-18T12:02:01.063Z,32.40
2019-05-18T12:04:31.257Z,32.30
2019-05-18T12:07:01.482Z,32.20
2019-05-18T12:09:31.821Z,32.70
2019-05-18T12:12:02.071Z,33.40
2019-05-18T12:14:34.300Z,34.00
2019-05-18T12:17:07.648Z,33.70
2019-05-18T12:19:37.884Z,33.50
2019-05-18T12:22:08.152Z,32.80
2019-05-18T12:24:38.399Z,31.50
2019-05-18T12:27:11.104Z,31.90
2019-05-18T12:29:41.331Z,31.60
2019-05-18T12:32:11.608Z,30.30
2019-05-18T12:34:47.658Z,30.50
2019-05-18T12:37:24.551Z,30.50
2019-05-18T12:39:56.250Z,29.50
2019-05-18T12:42:30.977Z,30.10
2019-05-18T12:45:01.395Z,31.30
2019-05-18T12:47:34.158Z,30.00
2019-05-18T12:50:08.228Z,29.50
2019-05-18T12:52:40.417Z,29.90
2019-05-18T12:55:17.014Z,29.80
2019-05-18T12:57:49.384Z,29.90
2019-05-18T13:00:20.183Z,29.10
2019-05-18T13:02:53.869Z,28.90
2019-05-18T13:05:24.420Z,28.80
2019-05-18T13:07:55.015Z,28.90
2019-05-18T13:10:25.643Z,28.80
2019-05-18T13:12:56.191Z,28.50
2019-05-18T13:15:47.138Z,28.60
2019-05-18T13:18:17.528Z,29.10
2019-05-18T13:20:48.139Z,29.70
2019-05-18T13:23:18.871Z,29.70
2019-05-18T13:25:49.625Z,29.60
2019-05-18T13:28:20.195Z,29.90
2019-05-18T13:30:51.120Z,30.40
2019-05-18T13:33:21.657Z,30.80
2019-05-18T13:35:52.088Z,31.50
2019-05-18T13:38:22.733Z,31.30
2019-05-18T13:40:53.162Z,31.20
2019-05-18T13:43:23.383Z,31.50
2019-05-18T13:45:53.584Z,31.60
2019-05-18T13:48:23.909Z,31.60
2019-05-18T13:50:54.117Z,31.50
2019-05-18T13:53:24.972Z,30.40
2019-05-18T13:55:55.259Z,29.80
2019-05-18T13:58:34.680Z,29.40
2019-05-18T14:01:12.276Z,28.50
2019-05-18T14:03:49.262Z,28.60
2019-05-18T14:06:29.888Z,29.10
2019-05-18T14:09:14.161Z,29.10
2019-05-18T14:11:52.122Z,29.00
2019-05-18T14:14:30.151Z,28.80
2019-05-18T14:17:10.623Z,29.50
2019-05-18T14:19:43.560Z,29.60
2019-05-18T14:22:25.757Z,29.40
2019-05-18T14:24:58.207Z,29.90
2019-05-18T14:27:35.949Z,29.70
2019-05-18T14:30:15.305Z,29.40
2019-05-18T14:32:56.435Z,29.00
2019-05-18T14:35:40.260Z,28.70
2019-05-18T14:38:21.937Z,28.70
2019-05-18T14:41:00.647Z,28.40
2019-05-18T14:43:42.865Z,28.70
2019-05-18T14:46:18.504Z,29.70
2019-05-18T14:48:59.304Z,29.60
2019-05-18T14:51:30.846Z,29.40
2019-05-18T14:54:04.342Z,28.90
2019-05-18T14:56:34.757Z,29.80
2019-05-18T14:59:05.398Z,30.80
2019-05-18T15:01:35.976Z,31.70
2019-05-18T15:04:06.579Z,32.10
2019-05-18T15:06:36.878Z,31.10
2019-05-18T15:09:07.169Z,29.60
2019-05-18T15:11:40.157Z,29.90
2019-05-18T15:14:10.471Z,29.90
2019-05-18T15:16:40.714Z,30.00
2019-05-18T15:19:10.988Z,30.50
2019-05-18T15:21:41.462Z,31.10
2019-05-18T15:24:11.733Z,31.50
2019-05-18T15:26:41.951Z,32.00
2019-05-18T15:29:12.151Z,32.10
2019-05-18T15:31:42.598Z,32.30
2019-05-18T15:34:12.814Z,32.60
2019-05-18T15:36:43.024Z,32.80
2019-05-18T15:39:13.227Z,32.70
2019-05-18T15:41:43.446Z,33.10
2019-05-18T15:44:13.724Z,32.90
2019-05-18T15:46:43.937Z,32.80
2019-05-18T15:49:14.200Z,32.60
2019-05-18T15:51:44.545Z,32.20
2019-05-18T15:54:14.835Z,31.60
2019-05-18T15:56:45.128Z,30.80
2019-05-18T15:59:15.394Z,30.50
2019-05-18T16:01:45.627Z,30.60
2019-05-18T16:04:15.891Z,30.80
2019-05-18T16:06:46.103Z,30.70
2019-05-18T16:09:16.299Z,31.00
2019-05-18T16:11:46.520Z,31.30
2019-05-18T16:14:16.868Z,31.20
2019-05-18T16:16:47.270Z,29.40
2019-05-18T16:19:17.659Z,29.20
2019-05-18T16:21:47.875Z,28.00
2019-05-18T16:24:18.082Z,27.70
2019-05-18T16:26:48.577Z,28.30
2019-05-18T16:29:18.643Z,27.80
2019-05-18T16:31:48.946Z,27.60
2019-05-18T16:34:37.815Z,27.40
2019-05-18T16:37:08.103Z,27.20
2019-05-18T16:39:38.316Z,26.80
2019-05-18T16:42:08.599Z,27.00
2019-05-18T16:44:38.824Z,27.20
2019-05-18T16:47:09.067Z,27.00
2019-05-18T16:49:39.264Z,26.70
2019-05-18T16:52:09.611Z,26.50
2019-05-18T16:54:39.816Z,26.20
2019-05-18T16:57:10.072Z,26.30
2019-05-18T16:59:40.525Z,26.40
2019-05-18T17:02:10.892Z,26.20
2019-05-18T17:04:41.387Z,25.70
2019-05-18T17:07:11.627Z,25.80
2019-05-18T17:09:42.361Z,26.00
2019-05-18T17:12:12.751Z,26.20
2019-05-18T17:14:42.955Z,26.70
2019-05-18T17:17:13.266Z,26.50
2019-05-18T17:19:43.636Z,26.20
2019-05-18T17:22:13.967Z,25.50
2019-05-18T17:24:44.628Z,25.40
2019-05-18T17:27:15.013Z,25.30
2019-05-18T17:29:45.209Z,25.40
2019-05-18T17:32:15.469Z,25.60
2019-05-18T17:34:46.040Z,25.20
2019-05-18T17:37:16.481Z,24.80
2019-05-18T17:43:59.035Z,24.60
2019-05-18T17:47:00.200Z,24.40
2019-05-18T17:49:51.642Z,24.60
2019-05-18T17:52:33.212Z,24.50
2019-05-18T17:55:11.392Z,24.20
2019-05-18T17:57:44.970Z,23.70
2019-05-18T18:00:40.407Z,23.80
2019-05-18T18:03:10.659Z,23.80
2019-05-18T18:06:21.991Z,23.80
2019-05-18T18:09:10.517Z,23.60
2019-05-18T18:11:47.646Z,23.70
2019-05-18T18:14:23.567Z,23.80
2019-05-18T18:16:57.767Z,23.90
2019-05-18T18:19:32.685Z,23.50
2019-05-18T18:22:03.094Z,23.10
2019-05-18T18:25:26.378Z,22.90
2019-05-18T18:27:59.759Z,23.00
2019-05-18T18:30:52.077Z,22.90
2019-05-18T18:33:55.605Z,22.70
2019-05-18T18:37:04.631Z,22.60
2019-05-18T18:39:34.911Z,22.30
2019-05-18T18:42:05.142Z,21.80
2019-05-18T18:44:36.988Z,21.70
2019-05-18T18:47:07.246Z,21.40
2019-05-18T18:50:16.316Z,21.40
2019-05-18T18:52:46.766Z,21.40
2019-05-18T18:55:17.183Z,21.30
2019-05-18T18:57:47.537Z,21.20
2019-05-18T19:00:17.799Z,20.90
2019-05-18T19:02:48.055Z,21.00
2019-05-18T19:05:18.316Z,20.80
2019-05-18T19:07:48.638Z,20.80
2019-05-18T19:10:18.856Z,20.70
2019-05-18T19:12:49.096Z,20.50
2019-05-18T19:15:19.451Z,20.50
2019-05-18T19:17:49.712Z,20.70
2019-05-18T19:20:20.124Z,20.70
2019-05-18T19:22:50.447Z,20.70
2019-05-18T19:25:20.888Z,20.20
2019-05-18T19:27:54.839Z,20.30
2019-05-18T19:30:22.991Z,20.40
2019-05-18T19:32:53.249Z,20.30
2019-05-18T19:35:23.520Z,20.40
2019-05-18T19:37:53.753Z,20.10
2019-05-18T19:40:24.047Z,20.00
2019-05-18T19:42:54.341Z,19.70
2019-05-18T19:45:24.643Z,19.70
2019-05-18T19:47:54.941Z,19.60
2019-05-18T19:50:25.169Z,19.70
2019-05-18T19:52:55.449Z,19.50
2019-05-18T19:55:26.630Z,19.40
2019-05-18T19:58:08.125Z,19.30
2019-05-18T20:00:28.838Z,19.30
2019-05-18T20:02:59.052Z,19.30
2019-05-18T20:05:29.339Z,19.30
2019-05-18T20:07:59.650Z,19.20
2019-05-18T20:10:29.867Z,19.10
2019-05-18T20:13:00.084Z,19.20
2019-05-18T20:15:30.302Z,19.40
2019-05-18T20:18:00.537Z,19.40
2019-05-18T20:20:30.739Z,19.20
2019-05-18T20:23:01.050Z,19.20
2019-05-18T20:25:31.267Z,19.10
2019-05-18T20:28:01.602Z,19.00
2019-05-18T20:30:32.015Z,19.00
2019-05-18T20:33:02.255Z,18.90
2019-05-18T20:35:32.543Z,18.40
2019-05-18T20:38:02.839Z,18.10
2019-05-18T20:40:33.051Z,17.80
2019-05-18T20:43:03.380Z,17.90
2019-05-18T20:45:34.954Z,18.20
2019-05-18T20:48:05.188Z,18.40
2019-05-18T20:50:35.447Z,18.50
2019-05-18T20:53:05.679Z,18.40
2019-05-18T20:55:35.955Z,18.30
2019-05-18T20:58:06.292Z,18.20
2019-05-18T21:00:38.394Z,18.40
2019-05-18T21:03:14.155Z,18.60
2019-05-18T21:05:44.504Z,18.70
2019-05-18T21:08:14.753Z,18.80
2019-05-18T21:10:45.091Z,18.70
2019-05-18T21:13:15.315Z,18.80
2019-05-18T21:15:45.752Z,18.80
2019-05-18T21:18:16.076Z,18.80
2019-05-18T21:20:47.867Z,18.60
2019-05-18T21:23:18.109Z,18.70
2019-05-18T21:25:48.397Z,18.70
2019-05-18T21:28:18.738Z,18.70
2019-05-18T21:30:49.040Z,18.60
2019-05-18T21:33:19.273Z,18.50
2019-05-18T21:35:49.553Z,18.30
2019-05-18T21:38:19.792Z,18.30
2019-05-18T21:40:49.998Z,18.30
2019-05-18T21:43:20.231Z,18.40
2019-05-18T21:45:50.431Z,18.40
2019-05-18T21:48:20.668Z,18.60
2019-05-18T21:50:50.871Z,18.70
2019-05-18T21:53:21.096Z,18.90
2019-05-18T21:55:51.615Z,19.00
2019-05-18T21:58:21.827Z,19.00
2019-05-18T22:00:53.341Z,18.70
2019-05-18T22:03:23.736Z,18.50
2019-05-18T22:06:12.605Z,18.50
2019-05-18T22:08:42.960Z,18.40
2019-05-18T22:11:13.345Z,18.40
2019-05-18T22:13:45.309Z,18.20
2019-05-18T22:16:18.057Z,18.10
2019-05-18T22:18:48.542Z,18.00
2019-05-18T22:21:18.831Z,18.10
2019-05-18T22:23:49.178Z,18.20
2019-05-18T22:26:19.468Z,18.20
2019-05-18T22:28:49.828Z,18.30
2019-05-18T22:31:20.081Z,18.20
2019-05-18T22:33:50.340Z,18.30
2019-05-18T22:36:20.903Z,18.20
2019-05-18T22:38:51.471Z,18.10
2019-05-18T22:41:22.017Z,18.00
2019-05-18T22:43:52.276Z,18.10
2019-05-18T22:46:22.512Z,17.70
2019-05-18T22:48:53.807Z,17.90
2019-05-18T22:51:24.099Z,18.00
2019-05-18T22:53:54.317Z,18.20
2019-05-18T22:56:24.732Z,18.00
2019-05-18T22:58:54.927Z,17.80
2019-05-18T23:01:25.257Z,17.80
2019-05-18T23:03:55.487Z,17.90
2019-05-18T23:06:25.744Z,17.90
2019-05-18T23:08:55.943Z,18.00
2019-05-18T23:11:26.531Z,18.00
2019-05-18T23:13:56.736Z,17.90
2019-05-18T23:16:27.308Z,17.90
2019-05-18T23:18:57.544Z,17.70
2019-05-18T23:21:27.763Z,17.50
2019-05-18T23:23:57.969Z,17.90
2019-05-18T23:26:28.622Z,18.00
2019-05-18T23:28:58.640Z,17.70
2019-05-18T23:31:28.878Z,17.60
2019-05-18T23:33:59.092Z,17.70
2019-05-18T23:36:29.382Z,17.80
2019-05-18T23:38:59.628Z,17.80
2019-05-18T23:41:29.971Z,17.80
2019-05-18T23:44:00.291Z,17.90
2019-05-18T23:46:30.492Z,17.90
2019-05-18T23:49:10.530Z,17.90
2019-05-18T23:51:32.623Z,18.00
2019-05-18T23:54:03.021Z,17.90
2019-05-18T23:56:33.324Z,17.90
2019-05-18T23:59:04.777Z,17.70
